Wells, New York
Current Conditions -  °F | °C
As of 1:55 PM on Wednesday 26 Nov 2014 (Local Time) from KNY0 Reporting Station
Overcast Overcast  
Wind Chill: 24°   Ceiling: 500
Heat Index: 29°   Visibility: 0.25mi
Dew Point: 28°   Wind: 5mph
Humidity: 96%   Direction: 20°NNE
Pressure: 30.06"   Gusts: NA
Location:  43.39°N, 74.28°W
Report Text: KNY0 261855Z AUTO 02004KT 1/4SM OVC005 M02/M02 A3006 RMK AO2 P0003 T10161021
Loading
Personal Weather Stations






























Interactive Weather Map New forecast layout! Learn more

10-Day Weather Forecast

Advertisements
Track Severe Weather on mobile